Time;durP1;ratioP1;P1;durP2;ratioP2;P2;SDS_P1;SDS_P2;PMS_P1;PMS_P2;Temp;Humidity;BMP_temperature;BMP_pressure;BME280_temperature;BME280_humidity;BME280_pressure;Samples;Min_cycle;Max_cycle;Signal;HPM_P1;HPM_P2
2022/06/23 00:01:48;;;;;;;9.43;6.63;;;19.90;99.90;;;;;;4971150;28;20519;-69
2022/06/23 00:04:24;;;;;;;6.90;5.23;;;19.90;99.90;;;;;;4960732;28;20474;-67
2022/06/23 00:06:59;;;;;;;9.20;6.23;;;19.90;99.90;;;;;;4970001;28;20439;-68
2022/06/23 00:09:46;;;;;;;7.93;5.20;;;19.90;99.90;;;;;;4968318;28;20479;-67
2022/06/23 00:12:19;;;;;;;6.60;5.00;;;19.90;99.90;;;;;;4970319;28;20436;-68
2022/06/23 00:14:52;;;;;;;7.83;6.20;;;19.70;99.90;;;;;;4971706;28;20981;-68
2022/06/23 00:17:34;;;;;;;14.23;5.70;;;19.70;99.90;;;;;;4970093;28;20434;-69
2022/06/23 00:20:10;;;;;;;14.30;6.70;;;19.60;99.90;;;;;;4969311;28;20772;-68
2022/06/23 00:22:39;;;;;;;9.80;5.50;;;19.60;99.90;;;;;;4972228;28;20976;-68
2022/06/23 00:25:06;;;;;;;16.67;6.07;;;19.60;99.90;;;;;;4975649;28;20470;-68
2022/06/23 00:27:35;;;;;;;8.70;5.33;;;19.60;99.90;;;;;;4973925;28;20439;-67
2022/06/23 00:30:06;;;;;;;12.80;5.00;;;19.60;99.90;;;;;;4972023;28;20473;-68
2022/06/23 00:32:32;;;;;;;7.60;5.43;;;19.60;99.90;;;;;;4973544;28;20435;-68
2022/06/23 00:35:00;;;;;;;10.50;7.00;;;19.60;99.90;;;;;;4974331;28;20815;-68
2022/06/23 00:37:27;;;;;;;14.00;5.53;;;19.60;99.90;;;;;;4974159;28;20208;-69
2022/06/23 00:39:55;;;;;;;9.93;6.10;;;19.50;99.90;;;;;;4973405;28;21010;-68
2022/06/23 00:42:26;;;;;;;9.47;5.60;;;19.50;99.90;;;;;;4974682;28;20494;-68
2022/06/23 00:45:07;;;;;;;8.10;5.33;;;19.50;99.90;;;;;;4972571;28;20462;-68
2022/06/23 00:47:50;;;;;;;7.20;5.50;;;19.50;99.90;;;;;;4974302;28;20431;-69
2022/06/23 00:50:27;;;;;;;7.93;5.97;;;19.40;99.90;;;;;;4970904;28;20848;-67
2022/06/23 00:53:02;;;;;;;9.97;7.37;;;19.30;99.90;;;;;;4976731;28;20876;-68
2022/06/23 00:55:34;;;;;;;11.13;5.43;;;19.20;99.90;;;;;;4974613;28;20947;-67
2022/06/23 00:58:05;;;;;;;10.50;7.20;;;19.20;99.90;;;;;;4974349;28;20530;-68
2022/06/23 01:00:36;;;;;;;9.40;6.70;;;19.10;99.90;;;;;;4972538;28;20451;-68
2022/06/23 01:03:18;;;;;;;8.47;5.77;;;19.10;99.90;;;;;;4975260;28;20457;-68
2022/06/23 01:05:58;;;;;;;12.10;5.57;;;18.90;99.90;;;;;;4973502;28;20443;-68
2022/06/23 01:08:34;;;;;;;10.30;5.63;;;18.90;99.90;;;;;;4971830;28;20435;-69
2022/06/23 01:11:11;;;;;;;7.60;6.57;;;18.80;99.90;;;;;;4972586;28;20474;-68
2022/06/23 01:14:08;;;;;;;8.73;6.43;;;18.80;99.90;;;;;;4973586;28;20471;-69
2022/06/23 01:16:52;;;;;;;9.27;6.87;;;18.70;99.90;;;;;;4967952;28;20447;-68
2022/06/23 01:19:53;;;;;;;8.43;6.30;;;18.70;99.90;;;;;;4971615;28;20912;-68
2022/06/23 01:22:42;;;;;;;13.20;6.90;;;18.70;99.90;;;;;;4973573;28;20439;-67
2022/06/23 01:25:31;;;;;;;8.87;6.50;;;18.70;99.90;;;;;;4978503;28;20465;-68
2022/06/23 01:28:08;;;;;;;8.33;6.17;;;18.70;99.90;;;;;;4978351;28;20526;-68
2022/06/23 01:30:43;;;;;;;10.30;6.97;;;18.70;99.90;;;;;;4978753;28;20976;-68
2022/06/23 01:33:34;;;;;;;14.60;7.10;;;18.60;99.90;;;;;;4977113;28;20446;-68
2022/06/23 01:36:36;;;;;;;7.57;6.17;;;18.70;99.90;;;;;;4971682;28;20555;-68
2022/06/23 01:39:13;;;;;;;10.07;6.90;;;18.70;99.90;;;;;;4939912;28;20447;-68
2022/06/23 01:41:41;;;;;;;9.87;6.60;;;18.70;99.90;;;;;;4973087;28;20427;-68
2022/06/23 01:44:19;;;;;;;10.40;7.03;;;18.70;99.90;;;;;;4977325;28;20659;-68
2022/06/23 01:46:50;;;;;;;12.60;8.07;;;18.70;99.90;;;;;;4971646;28;20446;-68
2022/06/23 01:49:18;;;;;;;14.93;11.20;;;18.70;99.90;;;;;;4969231;28;20467;-68
2022/06/23 01:51:52;;;;;;;11.50;7.40;;;18.60;99.90;;;;;;4973541;28;20453;-67
2022/06/23 01:54:20;;;;;;;11.73;6.43;;;18.60;99.90;;;;;;4973804;28;20893;-68
2022/06/23 01:57:01;;;;;;;9.07;6.80;;;18.60;99.90;;;;;;4972480;28;20530;-68
2022/06/23 01:59:31;;;;;;;14.60;7.60;;;18.50;99.90;;;;;;4974415;28;20453;-68
2022/06/23 02:02:15;;;;;;;10.70;5.90;;;18.40;99.90;;;;;;4973364;28;20537;-68
2022/06/23 02:04:50;;;;;;;10.27;6.63;;;18.40;99.90;;;;;;4972109;28;20601;-68
2022/06/23 02:07:25;;;;;;;12.73;5.80;;;18.30;99.90;;;;;;4971281;28;20610;-67
2022/06/23 02:10:18;;;;;;;10.13;6.70;;;18.20;99.90;;;;;;4971990;28;20469;-68
2022/06/23 02:13:02;;;;;;;7.80;7.00;;;18.10;99.90;;;;;;4973001;28;20432;-68
2022/06/23 02:15:50;;;;;;;13.23;6.77;;;18.10;99.90;;;;;;4973778;28;20435;-68
2022/06/23 02:18:23;;;;;;;11.30;7.40;;;18.20;99.90;;;;;;4969010;28;20444;-68
2022/06/23 02:21:02;;;;;;;9.47;6.40;;;18.20;99.90;;;;;;4972614;28;20435;-68
2022/06/23 02:23:40;;;;;;;10.33;5.87;;;18.20;99.90;;;;;;4972252;28;20469;-67
2022/06/23 02:26:35;;;;;;;9.83;6.77;;;18.30;99.90;;;;;;4972807;28;20442;-67
2022/06/23 02:29:48;;;;;;;8.63;5.93;;;18.30;99.90;;;;;;4962689;28;20447;-68
2022/06/23 02:32:19;;;;;;;7.87;6.60;;;18.20;99.90;;;;;;4924706;28;20504;-67
2022/06/23 02:34:58;;;;;;;8.33;6.10;;;18.10;99.90;;;;;;4972434;28;20535;-68
2022/06/23 02:37:45;;;;;;;13.47;7.10;;;18.20;99.90;;;;;;4967566;28;20603;-67
2022/06/23 02:40:29;;;;;;;8.40;6.50;;;18.20;99.90;;;;;;4973090;28;20435;-68
2022/06/23 02:43:03;;;;;;;11.17;6.77;;;18.10;99.90;;;;;;4971789;28;20454;-68
2022/06/23 02:45:54;;;;;;;10.37;7.63;;;18.10;99.90;;;;;;4972136;28;21095;-67
2022/06/23 02:49:01;;;;;;;8.20;7.40;;;18.20;99.90;;;;;;4969483;28;20810;-68
2022/06/23 02:51:26;;;;;;;9.80;7.27;;;18.20;99.90;;;;;;4970026;28;20458;-68
2022/06/23 02:54:16;;;;;;;16.63;8.23;;;18.10;99.90;;;;;;4973983;28;20479;-68
2022/06/23 02:57:04;;;;;;;9.90;5.80;;;18.10;99.90;;;;;;4972387;28;20227;-68
2022/06/23 02:59:35;;;;;;;12.23;7.30;;;18.00;99.90;;;;;;4970753;28;20435;-67
2022/06/23 03:02:09;;;;;;;8.33;6.80;;;18.10;99.90;;;;;;4972290;28;20440;-68
2022/06/23 03:04:44;;;;;;;13.77;7.20;;;18.10;99.90;;;;;;4969385;28;20640;-67
2022/06/23 03:07:39;;;;;;;9.33;6.57;;;18.10;99.90;;;;;;4971055;28;20453;-68
2022/06/23 03:10:13;;;;;;;11.57;7.03;;;18.10;99.90;;;;;;4970491;28;20476;-68
2022/06/23 03:12:44;;;;;;;10.70;6.40;;;18.10;99.90;;;;;;4971371;28;20436;-68
2022/06/23 03:15:29;;;;;;;11.23;6.70;;;18.10;99.90;;;;;;4974665;28;20830;-68
2022/06/23 03:18:04;;;;;;;7.43;6.63;;;18.00;99.90;;;;;;4971965;28;20801;-68
2022/06/23 03:20:48;;;;;;;10.73;6.00;;;17.90;99.90;;;;;;4971482;28;20435;-69
2022/06/23 03:23:26;;;;;;;11.07;6.23;;;17.80;99.90;;;;;;4971514;28;20466;-67
2022/06/23 03:26:15;;;;;;;9.97;8.23;;;17.90;99.90;;;;;;4972465;28;20615;-68
2022/06/23 03:29:10;;;;;;;10.17;6.30;;;17.90;99.90;;;;;;4963444;28;20526;-68
2022/06/23 03:31:41;;;;;;;8.70;7.50;;;18.00;99.90;;;;;;4971014;28;20530;-68
2022/06/23 03:34:25;;;;;;;13.20;7.40;;;18.00;99.90;;;;;;4969901;28;20475;-68
2022/06/23 03:37:01;;;;;;;8.30;7.10;;;18.00;99.90;;;;;;4973839;28;20545;-69
2022/06/23 03:42:28;;;;;;;10.70;7.10;;;18.10;99.90;;;;;;4969336;28;20482;-68
2022/06/23 03:45:20;;;;;;;17.87;7.17;;;18.20;99.90;;;;;;4968873;28;20545;-68
2022/06/23 03:47:53;;;;;;;11.70;6.63;;;18.20;99.90;;;;;;4970833;28;20452;-68
2022/06/23 03:50:25;;;;;;;7.03;6.10;;;18.20;99.90;;;;;;4971401;28;20467;-68
2022/06/23 03:53:14;;;;;;;9.67;6.50;;;18.30;99.90;;;;;;4973753;28;20447;-69
2022/06/23 03:55:51;;;;;;;14.93;9.27;;;18.20;99.90;;;;;;4969659;28;20510;-68
2022/06/23 03:58:30;;;;;;;11.57;7.37;;;18.20;99.90;;;;;;4969448;28;20431;-69
2022/06/23 04:01:10;;;;;;;11.27;8.60;;;18.10;99.90;;;;;;4971177;28;20497;-68
2022/06/23 04:03:57;;;;;;;13.07;8.70;;;18.00;99.90;;;;;;4973276;28;20471;-68
2022/06/23 04:06:34;;;;;;;12.80;7.87;;;18.00;99.90;;;;;;4970657;28;20494;-68
2022/06/23 04:09:25;;;;;;;14.33;7.90;;;18.10;99.90;;;;;;4969874;28;20439;-66
2022/06/23 04:11:59;;;;;;;16.30;7.20;;;18.20;99.90;;;;;;4970696;28;20439;-68
2022/06/23 04:14:43;;;;;;;10.50;7.50;;;18.30;99.90;;;;;;4970281;28;20451;-68
2022/06/23 04:17:19;;;;;;;9.33;6.80;;;18.50;99.90;;;;;;4969635;28;20463;-69
2022/06/23 04:20:08;;;;;;;9.70;6.77;;;18.50;99.90;;;;;;4969528;28;20454;-68
2022/06/23 04:23:00;;;;;;;15.00;7.27;;;18.50;99.90;;;;;;4971100;28;20447;-68
2022/06/23 04:25:41;;;;;;;7.10;6.43;;;18.50;99.90;;;;;;4968524;28;20451;-68
2022/06/23 04:28:18;;;;;;;9.10;6.50;;;18.50;99.90;;;;;;4970286;28;20832;-68
2022/06/23 04:30:45;;;;;;;6.43;5.70;;;18.50;99.90;;;;;;4970020;28;20558;-69
2022/06/23 04:33:19;;;;;;;8.83;7.10;;;18.50;99.90;;;;;;4971732;28;21000;-68
2022/06/23 04:35:49;;;;;;;11.70;8.00;;;18.50;99.90;;;;;;4968390;28;20435;-68
2022/06/23 04:38:23;;;;;;;10.30;6.60;;;18.30;99.90;;;;;;4961981;28;20526;-68
2022/06/23 04:41:12;;;;;;;7.97;7.20;;;18.30;99.90;;;;;;4970951;28;20443;-68
2022/06/23 04:43:42;;;;;;;11.07;6.47;;;18.30;99.90;;;;;;4970234;28;20528;-68
2022/06/23 04:46:52;;;;;;;11.13;7.10;;;18.30;99.90;;;;;;4970009;28;20518;-68
2022/06/23 04:49:36;;;;;;;9.17;6.83;;;18.30;99.90;;;;;;4909470;29;20446;-69
2022/06/23 04:52:02;;;;;;;9.10;6.80;;;18.40;99.90;;;;;;4911849;29;20635;-68
2022/06/23 04:54:36;;;;;;;7.70;6.50;;;18.50;99.90;;;;;;4946003;28;20486;-68
2022/06/23 04:57:11;;;;;;;14.03;8.10;;;18.70;99.90;;;;;;4969945;28;20231;-68
2022/06/23 04:59:54;;;;;;;9.37;8.07;;;18.80;99.90;;;;;;4968883;28;20514;-68
2022/06/23 05:02:58;;;;;;;9.53;6.50;;;19.00;99.90;;;;;;4968699;28;20963;-68
2022/06/23 05:05:29;;;;;;;11.57;6.90;;;19.30;99.90;;;;;;4958211;28;20500;-68
2022/06/23 05:07:54;;;;;;;9.47;6.50;;;19.60;99.90;;;;;;4979008;28;20547;-68
2022/06/23 05:10:26;;;;;;;11.43;5.90;;;19.90;99.90;;;;;;4985992;28;20477;-68
2022/06/23 05:12:57;;;;;;;7.83;6.13;;;20.20;99.90;;;;;;4981799;28;20179;-68
2022/06/23 05:15:32;;;;;;;9.00;6.77;;;20.50;99.90;;;;;;4984675;28;20444;-68
2022/06/23 05:18:02;;;;;;;11.70;5.73;;;20.70;99.90;;;;;;4981251;28;20439;-68
2022/06/23 05:20:50;;;;;;;11.77;6.90;;;20.70;99.90;;;;;;4980104;28;20442;-68
2022/06/23 05:23:24;;;;;;;11.43;6.90;;;20.80;99.90;;;;;;4971483;28;20815;-67
2022/06/23 05:25:53;;;;;;;13.20;6.60;;;20.70;99.90;;;;;;4977319;28;20819;-68
2022/06/23 05:28:24;;;;;;;13.53;6.50;;;20.70;99.90;;;;;;4985354;28;20432;-68
2022/06/23 05:30:59;;;;;;;13.00;7.33;;;20.70;99.90;;;;;;4978882;28;20474;-67
2022/06/23 05:33:36;;;;;;;10.53;6.67;;;20.80;99.90;;;;;;4976597;28;20454;-68
2022/06/23 05:36:19;;;;;;;14.10;7.97;;;20.80;99.90;;;;;;4977261;28;20435;-68
2022/06/23 05:38:52;;;;;;;7.50;6.57;;;20.90;99.90;;;;;;4974275;28;20436;-67
2022/06/23 05:41:37;;;;;;;8.30;6.07;;;21.00;99.90;;;;;;4978577;28;20442;-68
2022/06/23 05:44:19;;;;;;;13.93;6.73;;;21.00;99.90;;;;;;4977574;28;20459;-67
2022/06/23 05:46:47;;;;;;;10.57;7.00;;;21.10;99.90;;;;;;4975776;28;20569;-68
2022/06/23 05:49:16;;;;;;;12.97;7.97;;;21.30;99.90;;;;;;4971488;28;21134;-68
2022/06/23 05:52:00;;;;;;;6.67;5.53;;;21.40;99.90;;;;;;4977009;28;20454;-68
2022/06/23 05:54:35;;;;;;;11.67;6.13;;;21.50;99.90;;;;;;4972168;28;20506;-68
2022/06/23 05:57:18;;;;;;;13.53;5.93;;;21.60;99.90;;;;;;4973272;28;20443;-69
2022/06/23 05:59:59;;;;;;;7.33;5.90;;;21.80;99.90;;;;;;4973761;28;20482;-68
2022/06/23 06:02:37;;;;;;;15.63;7.53;;;21.80;99.90;;;;;;4971502;28;20450;-68
2022/06/23 06:05:03;;;;;;;15.20;7.00;;;22.00;99.90;;;;;;4971303;28;20549;-66
2022/06/23 06:07:40;;;;;;;9.37;6.40;;;22.20;99.90;;;;;;4969478;28;20953;-65
2022/06/23 06:10:15;;;;;;;8.20;6.47;;;22.20;99.90;;;;;;4971064;28;20466;-66
2022/06/23 06:12:42;;;;;;;11.60;5.67;;;22.30;99.90;;;;;;4976094;28;20529;-66
2022/06/23 06:15:19;;;;;;;8.03;5.30;;;22.40;99.90;;;;;;4972423;28;20973;-66
2022/06/23 06:17:46;;;;;;;12.77;5.93;;;22.50;99.90;;;;;;4972270;28;20467;-66
2022/06/23 06:20:13;;;;;;;10.10;5.67;;;22.70;99.90;;;;;;4969717;28;20439;-65
2022/06/23 06:23:09;;;;;;;8.87;6.30;;;22.80;99.90;;;;;;4970291;28;20447;-66
2022/06/23 06:25:40;;;;;;;10.30;5.40;;;23.10;99.90;;;;;;4971549;28;20548;-66
2022/06/23 06:28:27;;;;;;;6.00;5.00;;;23.30;99.90;;;;;;4974517;28;21020;-67
2022/06/23 06:31:33;;;;;;;10.07;4.70;;;23.30;99.90;;;;;;4972815;28;20479;-66
2022/06/23 06:34:19;;;;;;;6.20;5.30;;;23.70;99.90;;;;;;4970500;28;20455;-66
2022/06/23 06:36:49;;;;;;;6.50;5.43;;;23.70;99.90;;;;;;4969795;28;20530;-66
2022/06/23 06:39:29;;;;;;;8.50;5.60;;;23.80;99.90;;;;;;4967359;28;20454;-65
2022/06/23 06:42:03;;;;;;;10.33;5.43;;;24.10;99.90;;;;;;4973486;28;20876;-67
2022/06/23 06:44:30;;;;;;;8.83;5.97;;;24.20;99.90;;;;;;4972809;28;20550;-66
2022/06/23 06:46:56;;;;;;;10.43;5.40;;;24.20;99.90;;;;;;4968072;28;20523;-67
2022/06/23 06:49:24;;;;;;;8.33;5.67;;;24.50;99.90;;;;;;4970933;28;20535;-67
2022/06/23 06:51:53;;;;;;;6.90;5.00;;;24.70;99.90;;;;;;4972471;28;20185;-67
2022/06/23 06:54:21;;;;;;;5.83;5.10;;;24.90;99.90;;;;;;4971371;28;20510;-67
2022/06/23 06:56:56;;;;;;;8.07;5.73;;;25.00;99.90;;;;;;4971127;28;20439;-67
2022/06/23 06:59:24;;;;;;;7.77;4.83;;;24.60;99.90;;;;;;4974816;28;20438;-67
2022/06/23 07:01:56;;;;;;;7.17;5.23;;;25.00;99.90;;;;;;4972046;28;20542;-67
2022/06/23 07:04:30;;;;;;;10.63;5.13;;;25.30;99.90;;;;;;4972592;28;20459;-66
2022/06/23 07:07:05;;;;;;;10.03;5.57;;;25.50;99.90;;;;;;4969667;28;20462;-66
2022/06/23 07:09:43;;;;;;;7.40;4.73;;;25.40;99.90;;;;;;4972558;28;20815;-67
2022/06/23 07:12:19;;;;;;;9.00;5.47;;;25.40;99.90;;;;;;4983788;28;20455;-66
2022/06/23 07:15:05;;;;;;;11.90;5.60;;;25.60;99.90;;;;;;4970758;28;20577;-66
2022/06/23 07:17:40;;;;;;;7.37;5.47;;;25.80;99.90;;;;;;4972641;28;20467;-66
2022/06/23 07:20:21;;;;;;;8.23;4.60;;;25.90;99.90;;;;;;4970514;28;20443;-67
2022/06/23 07:23:17;;;;;;;9.67;4.70;;;26.00;99.90;;;;;;4969774;28;20953;-67
2022/06/23 07:25:49;;;;;;;7.27;4.90;;;25.80;99.90;;;;;;4969443;28;20851;-68
2022/06/23 07:28:23;;;;;;;9.47;4.87;;;25.80;99.90;;;;;;4969746;28;20526;-67
2022/06/23 07:30:54;;;;;;;7.27;4.33;;;26.10;99.90;;;;;;4970401;28;20499;-66
2022/06/23 07:33:41;;;;;;;10.33;5.87;;;26.00;99.90;;;;;;4971646;28;20459;-68
2022/06/23 07:36:18;;;;;;;6.17;3.93;;;25.90;99.90;;;;;;4973770;28;20511;-65
2022/06/23 07:38:52;;;;;;;16.23;5.83;;;25.80;99.90;;;;;;4972018;28;20825;-67
2022/06/23 07:41:24;;;;;;;10.50;4.53;;;26.10;99.90;;;;;;4963168;28;20439;-66
2022/06/23 07:44:03;;;;;;;7.93;4.90;;;26.30;99.90;;;;;;4970187;28;21720;-66
2022/06/23 07:46:29;;;;;;;8.30;4.60;;;26.30;99.90;;;;;;4972417;28;20448;-66
2022/06/23 07:48:55;;;;;;;11.00;4.20;;;26.80;99.90;;;;;;4977720;28;20451;-67
2022/06/23 07:51:21;;;;;;;7.43;4.33;;;27.30;99.90;;;;;;4972222;28;21047;-68
2022/06/23 07:53:50;;;;;;;6.80;4.57;;;27.50;99.90;;;;;;4971126;28;20254;-67
2022/06/23 07:56:22;;;;;;;5.83;4.90;;;27.50;99.90;;;;;;4971957;28;21473;-66
2022/06/23 07:58:50;;;;;;;8.07;4.27;;;27.70;99.90;;;;;;4970792;28;20443;-66
2022/06/23 08:01:34;;;;;;;8.50;4.60;;;27.70;99.90;;;;;;4975828;28;20533;-66
2022/06/23 08:04:32;;;;;;;9.77;3.30;;;27.50;99.90;;;;;;4971348;28;20525;-67
2022/06/23 08:07:03;;;;;;;7.83;4.53;;;27.40;99.90;;;;;;4976380;28;20526;-66
2022/06/23 08:09:36;;;;;;;10.43;4.90;;;27.10;99.90;;;;;;4970672;28;20506;-66
2022/06/23 08:16:49;;;;;;;10.57;4.27;;;27.50;99.90;;;;;;4970107;28;20522;-66
2022/06/23 08:17:44;;;;;;;7.83;4.93;;;27.80;99.90;;;;;;4979495;28;20427;-67
2022/06/23 08:20:12;;;;;;;8.10;5.33;;;28.10;99.90;;;;;;4970548;28;20443;-66
2022/06/23 08:22:42;;;;;;;7.97;4.03;;;28.40;99.90;;;;;;4972206;28;20440;-67
2022/06/23 08:25:09;;;;;;;5.97;3.90;;;28.20;99.90;;;;;;4971420;28;20467;-66
2022/06/23 08:27:37;;;;;;;7.63;3.70;;;27.90;99.90;;;;;;4975136;28;20470;-67
2022/06/23 08:30:14;;;;;;;8.13;3.83;;;27.80;99.90;;;;;;4969686;28;20471;-67
2022/06/23 08:32:44;;;;;;;11.10;4.70;;;27.60;99.90;;;;;;4966973;28;20469;-66
2022/06/23 08:35:15;;;;;;;5.07;3.70;;;27.70;99.90;;;;;;4970792;28;20474;-66
2022/06/23 08:38:05;;;;;;;8.50;4.40;;;28.30;99.90;;;;;;4975598;28;20489;-66
2022/06/23 08:41:08;;;;;;;9.67;4.10;;;28.30;99.90;;;;;;4965465;28;20448;-65
2022/06/23 08:43:59;;;;;;;8.67;4.53;;;28.20;99.90;;;;;;4972871;28;20926;-66
2022/06/23 08:46:35;;;;;;;7.10;4.43;;;27.70;99.90;;;;;;4979452;28;20462;-65
2022/06/23 08:49:14;;;;;;;6.83;4.40;;;28.00;99.90;;;;;;4977807;28;20443;-67
2022/06/23 08:52:14;;;;;;;5.90;4.23;;;28.60;99.90;;;;;;4978827;28;20996;-65
2022/06/23 08:54:45;;;;;;;8.77;4.43;;;28.60;99.90;;;;;;4971142;28;20467;-66
2022/06/23 08:57:36;;;;;;;8.90;4.80;;;28.10;99.90;;;;;;4977474;28;20438;-66
2022/06/23 09:00:12;;;;;;;5.90;3.97;;;28.20;99.90;;;;;;4972373;28;20590;-66
2022/06/23 09:02:56;;;;;;;4.20;3.80;;;28.30;99.90;;;;;;4978107;28;20445;-66
2022/06/23 09:05:45;;;;;;;12.20;3.80;;;27.90;99.90;;;;;;4973169;28;20486;-66
2022/06/23 09:08:47;;;;;;;7.73;3.70;;;28.60;99.90;;;;;;4976178;28;20500;-66
2022/06/23 09:11:25;;;;;;;5.20;4.30;;;29.30;99.90;;;;;;4971875;28;20506;-66
2022/06/23 09:14:02;;;;;;;5.60;3.30;;;29.50;99.90;;;;;;4976398;28;20554;-66
2022/06/23 09:16:43;;;;;;;6.20;3.03;;;29.70;97.80;;;;;;4969557;28;21044;-65
2022/06/23 09:19:19;;;;;;;7.77;4.47;;;29.80;97.80;;;;;;4972231;28;20444;-66
2022/06/23 09:22:12;;;;;;;6.00;3.93;;;30.00;98.20;;;;;;4969900;28;20446;-66
2022/06/23 09:25:22;;;;;;;7.90;3.87;;;30.30;98.60;;;;;;4969794;28;20546;-63
2022/06/23 09:28:15;;;;;;;7.50;4.30;;;30.40;97.50;;;;;;4973429;28;20458;-66
2022/06/23 09:31:19;;;;;;;8.80;3.47;;;30.50;97.20;;;;;;4967082;28;20902;-63
2022/06/23 09:33:50;;;;;;;5.70;3.40;;;30.30;96.40;;;;;;4955462;28;20476;-66
2022/06/23 09:36:25;;;;;;;8.07;3.63;;;30.50;96.50;;;;;;4972741;28;20807;-65
2022/06/23 09:39:24;;;;;;;6.93;3.13;;;30.60;96.50;;;;;;4977995;28;20444;-67
2022/06/23 09:42:09;;;;;;;5.70;3.27;;;30.80;95.40;;;;;;4971907;28;20878;-67
2022/06/23 09:44:40;;;;;;;8.57;4.13;;;31.10;95.40;;;;;;4975023;28;20833;-66
2022/06/23 09:47:30;;;;;;;5.10;3.40;;;31.30;95.30;;;;;;4975144;28;20798;-67
2022/06/23 09:50:01;;;;;;;8.90;4.37;;;31.60;94.90;;;;;;4974708;28;20463;-66
2022/06/23 09:52:47;;;;;;;6.53;3.10;;;31.70;94.20;;;;;;4972747;28;20443;-66
2022/06/23 09:55:24;;;;;;;7.57;4.07;;;32.00;92.70;;;;;;4969904;28;20475;-67
2022/06/23 09:58:29;;;;;;;6.27;3.80;;;32.00;93.20;;;;;;4978544;28;20470;-66
2022/06/23 10:01:18;;;;;;;12.73;4.20;;;32.00;91.80;;;;;;4972030;28;20440;-66
2022/06/23 10:04:08;;;;;;;4.70;4.10;;;31.70;92.50;;;;;;4980455;28;20462;-64
2022/06/23 10:07:04;;;;;;;6.20;4.03;;;31.40;92.30;;;;;;4971680;28;20466;-70
2022/06/23 10:09:42;;;;;;;6.93;4.07;;;31.50;92.60;;;;;;4972886;28;20439;-67
2022/06/23 10:12:33;;;;;;;8.40;3.93;;;30.90;92.40;;;;;;4979023;28;20521;-67
2022/06/23 10:15:40;;;;;;;8.43;4.60;;;31.10;92.50;;;;;;4967087;28;20525;-67
2022/06/23 10:18:24;;;;;;;7.30;3.90;;;32.40;91.10;;;;;;4953292;28;20455;-66
2022/06/23 10:21:15;;;;;;;7.93;4.27;;;33.40;89.90;;;;;;4972380;28;20953;-67
2022/06/23 10:24:08;;;;;;;4.77;3.00;;;34.20;87.00;;;;;;4967810;28;20455;-67
2022/06/23 10:27:19;;;;;;;7.43;3.40;;;34.60;80.90;;;;;;4982295;28;20442;-67
2022/06/23 10:30:02;;;;;;;8.73;3.47;;;33.40;78.30;;;;;;4933553;29;20871;-66
2022/06/23 10:33:03;;;;;;;4.73;3.63;;;32.90;81.50;;;;;;4953200;29;20794;-67
2022/06/23 10:36:14;;;;;;;5.50;3.70;;;33.60;80.30;;;;;;4954072;29;20888;-66
2022/06/23 10:38:46;;;;;;;4.50;4.00;;;35.40;77.50;;;;;;4946333;29;20780;-67
2022/06/23 10:41:40;;;;;;;8.10;3.90;;;36.70;74.30;;;;;;4955320;29;20428;-65
2022/06/23 10:44:34;;;;;;;6.70;3.63;;;37.20;71.80;;;;;;4955113;28;21016;-67
2022/06/23 10:47:10;;;;;;;5.40;3.30;;;37.00;67.40;;;;;;4955474;29;20479;-67
2022/06/23 10:49:49;;;;;;;6.37;3.77;;;36.60;66.30;;;;;;4954800;29;20460;-67
2022/06/23 10:52:27;;;;;;;6.60;3.33;;;36.60;65.20;;;;;;4955066;29;20510;-66
2022/06/23 10:55:13;;;;;;;4.83;2.80;;;37.40;63.60;;;;;;4954967;28;20531;-67
2022/06/23 10:58:15;;;;;;;2.90;2.43;;;38.30;59.20;;;;;;4954989;28;20433;-65
2022/06/23 11:01:05;;;;;;;5.77;3.30;;;38.80;55.60;;;;;;4955037;29;20483;-67
2022/06/23 11:04:05;;;;;;;6.13;3.00;;;39.60;55.10;;;;;;4954951;28;20960;-67
2022/06/23 11:07:00;;;;;;;4.73;3.20;;;39.90;54.70;;;;;;4953141;28;20934;-67
2022/06/23 11:09:54;;;;;;;6.07;3.43;;;40.20;53.20;;;;;;4954431;29;20401;-67
2022/06/23 11:12:35;;;;;;;5.93;2.83;;;40.50;51.20;;;;;;4954882;29;20453;-67
2022/06/23 11:15:19;;;;;;;4.77;3.23;;;40.60;49.60;;;;;;4954572;28;20438;-66
2022/06/23 11:17:50;;;;;;;7.97;7.13;;;41.00;48.80;;;;;;4954532;29;20491;-66
2022/06/23 11:20:36;;;;;;;5.37;3.10;;;41.60;47.30;;;;;;4954201;28;20487;-67
2022/06/23 11:23:45;;;;;;;7.60;4.00;;;41.70;45.90;;;;;;4954279;28;20523;-67
2022/06/23 11:26:22;;;;;;;6.50;3.63;;;41.70;46.20;;;;;;4951726;28;20436;-68
2022/06/23 11:28:57;;;;;;;5.10;3.33;;;40.50;45.90;;;;;;4954080;29;20455;-67
2022/06/23 11:31:28;;;;;;;6.30;3.57;;;40.80;46.00;;;;;;4954312;29;20800;-67
2022/06/23 11:34:13;;;;;;;3.33;3.03;;;40.40;45.60;;;;;;4954325;28;20440;-67
2022/06/23 11:37:19;;;;;;;6.00;3.87;;;40.80;45.30;;;;;;4954353;29;20429;-67
2022/06/23 11:40:09;;;;;;;6.90;3.87;;;41.00;45.90;;;;;;4953697;29;20455;-67
2022/06/23 11:43:00;;;;;;;5.50;3.30;;;42.80;44.70;;;;;;4954183;29;20511;-66
2022/06/23 11:45:34;;;;;;;6.70;4.20;;;43.70;42.50;;;;;;4954208;29;20456;-67
2022/06/23 11:48:23;;;;;;;9.13;4.13;;;41.00;44.20;;;;;;4954088;29;20424;-66
2022/06/23 11:50:58;;;;;;;4.83;3.00;;;40.30;45.70;;;;;;4954050;29;20464;-67
2022/06/23 11:53:43;;;;;;;5.93;3.23;;;41.80;44.40;;;;;;4954010;28;20840;-67
2022/06/23 11:56:34;;;;;;;7.80;3.83;;;42.50;43.50;;;;;;4954034;28;20476;-68
2022/06/23 11:59:08;;;;;;;9.67;4.13;;;44.00;42.00;;;;;;4953841;28;20788;-68
2022/06/23 12:01:33;;;;;;;6.10;3.57;;;42.90;42.30;;;;;;4954127;29;20435;-67
2022/06/23 12:04:27;;;;;;;10.47;4.13;;;42.10;42.70;;;;;;4954049;28;20535;-66
2022/06/23 12:07:11;;;;;;;3.43;3.13;;;42.80;42.70;;;;;;4954029;29;20177;-67
2022/06/23 12:09:37;;;;;;;5.20;4.50;;;43.70;41.60;;;;;;4953571;29;20511;-66
2022/06/23 12:12:05;;;;;;;7.23;3.90;;;44.30;40.90;;;;;;4953923;29;20424;-67
2022/06/23 12:14:34;;;;;;;5.30;3.33;;;43.10;40.80;;;;;;4953917;28;20197;-68
2022/06/23 12:17:47;;;;;;;6.30;3.63;;;42.10;40.90;;;;;;4952960;29;20428;-66
2022/06/23 12:20:15;;;;;;;5.63;4.73;;;41.40;41.60;;;;;;4932140;29;20437;-67
2022/06/23 12:22:59;;;;;;;7.97;3.30;;;42.80;41.30;;;;;;4932450;29;20434;-67
2022/06/23 12:25:36;;;;;;;8.20;3.40;;;43.90;39.40;;;;;;4939589;29;20440;-66
2022/06/23 12:28:07;;;;;;;7.47;3.97;;;44.70;39.30;;;;;;4953890;29;20511;-68
2022/06/23 12:30:43;;;;;;;10.47;3.57;;;42.80;39.90;;;;;;4953575;29;20464;-67
2022/06/23 12:33:27;;;;;;;7.43;3.57;;;41.30;41.00;;;;;;4953739;28;20507;-67
2022/06/23 12:36:00;;;;;;;6.73;3.20;;;42.90;40.70;;;;;;4953726;29;20416;-68
2022/06/23 12:38:45;;;;;;;8.23;4.77;;;45.00;38.70;;;;;;4953107;29;20420;-67
2022/06/23 12:41:18;;;;;;;4.03;3.63;;;45.30;38.00;;;;;;4953658;29;20950;-67
2022/06/23 12:44:03;;;;;;;6.07;4.20;;;45.90;37.90;;;;;;4953680;28;20486;-68
2022/06/23 12:46:50;;;;;;;6.53;4.00;;;46.30;37.20;;;;;;5008416;23;20492;-64
2022/06/23 12:49:31;;;;;;;3.90;3.47;;;44.90;37.40;;;;;;4972283;28;20416;-64
2022/06/23 12:52:29;;;;;;;4.63;4.10;;;45.00;37.20;;;;;;4972979;28;20913;-63
2022/06/23 12:55:17;;;;;;;5.13;3.60;;;43.00;38.70;;;;;;4972945;28;20459;-64
2022/06/23 12:58:07;;;;;;;5.90;3.80;;;43.30;38.50;;;;;;4972925;28;20412;-64
2022/06/23 13:00:33;;;;;;;6.30;3.13;;;44.50;37.40;;;;;;4972643;28;20415;-64
2022/06/23 13:03:10;;;;;;;6.90;3.80;;;45.50;36.80;;;;;;4972733;28;20778;-64
2022/06/23 13:05:45;;;;;;;5.40;3.10;;;44.80;36.30;;;;;;4972773;28;20207;-64
2022/06/23 13:08:22;;;;;;;5.37;3.63;;;44.30;35.90;;;;;;4972591;28;20419;-64
2022/06/23 13:10:52;;;;;;;3.90;3.43;;;42.00;37.70;;;;;;4972680;28;20550;-64
2022/06/23 13:13:40;;;;;;;5.83;3.33;;;43.20;36.60;;;;;;4972708;28;20434;-63
2022/06/23 13:16:25;;;;;;;4.47;3.10;;;43.30;36.00;;;;;;4972643;28;20943;-64
2022/06/23 13:19:00;;;;;;;7.20;3.27;;;43.80;35.70;;;;;;4972441;28;20408;-64
2022/06/23 13:21:30;;;;;;;4.40;4.00;;;43.80;36.20;;;;;;4972670;28;20455;-63
2022/06/23 13:24:01;;;;;;;7.30;2.83;;;43.60;36.40;;;;;;4972574;28;20415;-64
2022/06/23 13:26:29;;;;;;;3.80;3.47;;;43.60;36.80;;;;;;4972489;28;20505;-64
2022/06/23 13:29:15;;;;;;;4.33;3.20;;;43.80;36.40;;;;;;4974051;28;20431;-64
2022/06/23 13:31:55;;;;;;;4.23;3.40;;;44.00;36.20;;;;;;4975999;28;20485;-64
2022/06/23 13:34:39;;;;;;;6.67;3.40;;;42.80;36.70;;;;;;4975991;28;20427;-64
2022/06/23 13:37:17;;;;;;;3.97;3.57;;;42.80;37.10;;;;;;4975994;28;20423;-64
2022/06/23 13:39:51;;;;;;;5.83;4.10;;;41.40;37.70;;;;;;4975321;28;20427;-64
2022/06/23 13:42:30;;;;;;;6.03;4.10;;;39.30;39.50;;;;;;4975741;28;20469;-64
2022/06/23 13:45:04;;;;;;;4.03;3.70;;;38.50;40.30;;;;;;4975665;28;20971;-64
2022/06/23 13:47:52;;;;;;;4.87;3.73;;;37.10;40.60;;;;;;4975720;28;20438;-64
2022/06/23 13:50:39;;;;;;;5.70;2.97;;;36.40;41.60;;;;;;4975374;28;20455;-64
2022/06/23 13:53:20;;;;;;;3.93;3.20;;;36.10;42.20;;;;;;4975640;28;20423;-64
2022/06/23 13:56:34;;;;;;;3.97;3.57;;;36.30;42.30;;;;;;4975574;28;20427;-64